Terminal Aerodrome Forecast
Issued by NWS

Home | Current Version | Previous Version | Text Only | Print | Product List | Glossary On
Versions: 1 2 3 4 5 6 7 8 9 10 11 12
000
FTUS42 KMHX 242320
TAFISO
TAF
KISO 242320Z 2500/2524 VRB02KT P6SM SCT250
     FM251100 24005KT P6SM SCT100 BKN200
     FM251500 20007KT P6SM OVC050
     FM252000 23005KT 6SM -RA OVC015
      AMD LTD TO CLD VIS AND WIND=

USA.gov is the U.S. government's official web portal to all federal, state and local government web resources and services.